createdAt,value
2023-04-29T00:02:18.699Z,67.51
2023-04-29T00:04:46.450Z,67.33
2023-04-29T00:07:14.101Z,67.56
2023-04-29T00:09:42.762Z,66.76
2023-04-29T00:12:10.020Z,66.82
2023-04-29T00:14:37.344Z,66.69
2023-04-29T00:17:04.876Z,66.26
2023-04-29T00:19:32.276Z,65.91
2023-04-29T00:21:59.605Z,65.53
2023-04-29T00:24:26.926Z,65.33
2023-04-29T00:26:55.622Z,65.55
2023-04-29T00:29:22.956Z,65.75
2023-04-29T00:31:50.227Z,65.93
2023-04-29T00:34:17.629Z,65.37
2023-04-29T00:36:45.038Z,65.60
2023-04-29T00:39:13.961Z,66.07
2023-04-29T00:41:42.680Z,65.80
2023-04-29T00:44:11.425Z,66.45
2023-04-29T00:46:38.877Z,67.10
2023-04-29T00:49:10.504Z,66.73
2023-04-29T00:51:38.589Z,67.56
2023-04-29T00:54:06.329Z,67.12
2023-04-29T00:56:36.126Z,66.38
2023-04-29T00:59:03.485Z,66.52
2023-04-29T01:01:32.741Z,66.92
2023-04-29T01:04:00.605Z,66.38
2023-04-29T01:06:37.380Z,66.49
2023-04-29T01:09:21.956Z,65.97
2023-04-29T01:12:11.695Z,65.75
2023-04-29T01:14:43.307Z,65.55
2023-04-29T01:17:18.278Z,66.25
2023-04-29T01:19:50.136Z,67.35
2023-04-29T01:22:17.666Z,67.63
2023-04-29T01:24:46.453Z,67.67
2023-04-29T01:27:22.929Z,66.80
2023-04-29T01:29:56.369Z,67.61
2023-04-29T01:32:37.213Z,67.02
2023-04-29T01:35:11.614Z,66.56
2023-04-29T01:37:48.373Z,66.32
2023-04-29T01:40:23.972Z,67.12
2023-04-29T01:43:00.559Z,67.34
2023-04-29T01:45:29.576Z,66.55
2023-04-29T01:47:57.980Z,66.84
2023-04-29T01:50:25.396Z,66.73
2023-04-29T01:52:52.769Z,66.80
2023-04-29T01:55:21.946Z,66.98
2023-04-29T01:57:49.349Z,66.85
2023-04-29T02:00:16.915Z,67.11
2023-04-29T02:02:44.308Z,67.49
2023-04-29T02:05:11.772Z,68.49
2023-04-29T02:07:39.119Z,68.28
2023-04-29T02:10:07.299Z,68.54
2023-04-29T02:12:36.021Z,68.40
2023-04-29T02:15:03.658Z,68.75
2023-04-29T02:17:31.041Z,68.85
2023-04-29T02:19:58.329Z,68.36
2023-04-29T02:22:25.623Z,68.92
2023-04-29T02:24:53.081Z,69.24
2023-04-29T02:27:20.398Z,70.11
2023-04-29T02:29:49.174Z,69.56
2023-04-29T02:32:16.535Z,69.98
2023-04-29T02:34:43.947Z,69.75
2023-04-29T02:37:11.221Z,69.73
2023-04-29T02:39:38.544Z,68.65
2023-04-29T02:42:05.938Z,69.03
2023-04-29T02:44:33.363Z,68.37
2023-04-29T02:47:02.423Z,68.99
2023-04-29T02:49:29.719Z,68.81
2023-04-29T02:51:57.102Z,68.88
2023-04-29T02:54:24.502Z,68.78
2023-04-29T02:56:51.793Z,68.60
2023-04-29T02:59:19.139Z,68.77
2023-04-29T03:01:46.675Z,69.63
2023-04-29T03:04:15.711Z,69.54
2023-04-29T03:06:43.199Z,68.82
2023-04-29T03:09:10.485Z,68.45
2023-04-29T03:11:37.819Z,68.01
2023-04-29T03:14:05.221Z,67.65
2023-04-29T03:16:32.533Z,67.58
2023-04-29T03:18:59.838Z,67.92
2023-04-29T03:21:28.562Z,67.51
2023-04-29T03:23:55.872Z,67.09
2023-04-29T03:26:23.305Z,67.36
2023-04-29T03:28:50.681Z,67.57
2023-04-29T03:31:18.319Z,67.13
2023-04-29T03:33:45.726Z,66.72
2023-04-29T03:36:13.016Z,66.79
2023-04-29T03:38:41.727Z,66.84
2023-04-29T03:41:09.608Z,67.28
2023-04-29T03:43:36.945Z,67.88
2023-04-29T03:46:04.306Z,67.92
2023-04-29T03:48:31.693Z,68.35
2023-04-29T03:50:59.033Z,68.19
2023-04-29T03:53:26.517Z,68.16
2023-04-29T03:55:55.223Z,68.00
2023-04-29T03:58:22.654Z,68.18
2023-04-29T04:00:50.000Z,68.42
2023-04-29T04:03:17.508Z,68.91
2023-04-29T04:05:44.992Z,68.98
2023-04-29T04:08:12.326Z,69.70
2023-04-29T04:10:39.575Z,69.78
2023-04-29T04:13:08.253Z,69.69
2023-04-29T04:15:37.780Z,69.37
2023-04-29T04:18:14.237Z,68.99
2023-04-29T04:20:41.571Z,69.01
2023-04-29T04:23:08.891Z,68.71
2023-04-29T04:25:38.668Z,68.08
2023-04-29T04:28:05.960Z,67.66
2023-04-29T04:30:35.732Z,67.79
2023-04-29T04:33:03.107Z,68.15
2023-04-29T04:35:30.391Z,68.15
2023-04-29T04:37:57.703Z,67.70
2023-04-29T04:40:25.133Z,68.45
2023-04-29T04:42:54.715Z,68.08
2023-04-29T04:45:22.555Z,67.87
2023-04-29T04:47:51.269Z,67.64
2023-04-29T04:50:18.716Z,67.97
2023-04-29T04:52:48.281Z,67.98
2023-04-29T04:55:15.824Z,67.95
2023-04-29T04:57:43.170Z,67.48
2023-04-29T05:00:12.021Z,67.54
2023-04-29T05:02:39.418Z,69.00
2023-04-29T05:05:08.904Z,69.02
2023-04-29T05:07:36.314Z,68.40
2023-04-29T05:10:11.298Z,68.23
2023-04-29T05:12:38.626Z,68.69
2023-04-29T05:15:07.175Z,68.25
2023-04-29T05:17:34.620Z,67.89
2023-04-29T05:20:02.461Z,68.79
2023-04-29T05:22:31.610Z,68.95
2023-04-29T05:24:59.262Z,69.44
2023-04-29T05:27:27.170Z,69.57
2023-04-29T05:29:54.773Z,69.42
2023-04-29T05:32:22.560Z,69.08
2023-04-29T05:34:49.924Z,69.10
2023-04-29T05:37:17.233Z,68.65
2023-04-29T05:39:45.984Z,68.29
2023-04-29T05:42:13.259Z,68.24
2023-04-29T05:44:40.524Z,67.75
2023-04-29T05:47:07.814Z,67.59
2023-04-29T05:49:35.297Z,68.50
2023-04-29T05:52:02.625Z,69.09
2023-04-29T05:54:33.129Z,69.35
2023-04-29T05:57:02.678Z,69.56
2023-04-29T05:59:30.098Z,69.25
2023-04-29T06:01:57.533Z,68.95
2023-04-29T06:04:25.285Z,69.87
2023-04-29T06:06:53.646Z,69.10
2023-04-29T06:09:27.501Z,68.66
2023-04-29T06:11:55.479Z,69.02
2023-04-29T06:14:24.385Z,69.11
2023-04-29T06:16:51.693Z,69.47
2023-04-29T06:19:18.973Z,69.06
2023-04-29T06:21:46.309Z,69.06
2023-04-29T06:24:16.262Z,69.65
2023-04-29T06:26:43.580Z,70.21
2023-04-29T06:29:11.022Z,69.79
2023-04-29T06:31:39.782Z,69.71
2023-04-29T06:34:07.105Z,69.25
2023-04-29T06:36:34.424Z,69.58
2023-04-29T06:39:01.760Z,69.46
2023-04-29T06:41:29.067Z,69.32
2023-04-29T06:43:56.377Z,69.75
2023-04-29T06:46:23.692Z,69.28
2023-04-29T06:48:52.441Z,69.02
2023-04-29T06:51:19.721Z,68.81
2023-04-29T06:53:47.084Z,68.39
2023-04-29T06:56:16.732Z,68.82
2023-04-29T06:58:44.455Z,68.34
2023-04-29T07:01:11.982Z,68.75
2023-04-29T07:03:39.491Z,68.79
2023-04-29T07:06:08.272Z,68.74
2023-04-29T07:08:35.595Z,68.80
2023-04-29T07:11:02.910Z,69.28
2023-04-29T07:13:30.350Z,69.40
2023-04-29T07:15:57.680Z,69.87
2023-04-29T07:18:25.018Z,69.33
2023-04-29T07:20:52.399Z,68.70
2023-04-29T07:23:21.085Z,69.58
2023-04-29T07:25:48.418Z,69.27
2023-04-29T07:28:15.712Z,69.07
2023-04-29T07:30:43.022Z,69.24
2023-04-29T07:33:10.392Z,69.36
2023-04-29T07:35:37.741Z,68.90
2023-04-29T07:38:05.001Z,68.74
2023-04-29T07:40:33.752Z,68.35
2023-04-29T07:43:01.007Z,68.69
2023-04-29T07:45:28.424Z,69.54
2023-04-29T07:47:55.763Z,68.92
2023-04-29T07:50:23.145Z,69.24
2023-04-29T07:52:50.498Z,69.08
2023-04-29T07:55:17.911Z,68.67
2023-04-29T07:57:46.613Z,68.66
2023-04-29T08:00:14.429Z,68.51
2023-04-29T08:02:41.846Z,69.04
2023-04-29T08:05:09.853Z,68.82
2023-04-29T08:07:37.322Z,69.44
2023-04-29T08:10:05.500Z,69.32
2023-04-29T08:12:32.845Z,70.02
2023-04-29T08:15:01.548Z,70.10
2023-04-29T08:17:28.862Z,69.94
2023-04-29T08:19:56.239Z,69.40
2023-04-29T08:22:23.600Z,68.70
2023-04-29T08:24:51.234Z,68.25
2023-04-29T08:27:18.783Z,68.76
2023-04-29T08:32:15.074Z,67.98
2023-04-29T08:34:42.408Z,67.10
2023-04-29T08:37:09.723Z,67.42
2023-04-29T08:39:37.009Z,67.63
2023-04-29T08:42:08.616Z,67.21
2023-04-29T08:44:36.208Z,67.24
2023-04-29T08:47:03.795Z,67.13
2023-04-29T08:49:32.925Z,66.58
2023-04-29T08:52:00.547Z,66.43
2023-04-29T08:54:27.856Z,66.73
2023-04-29T08:56:55.541Z,67.56
2023-04-29T08:59:23.530Z,67.87
2023-04-29T09:01:54.106Z,68.07
2023-04-29T09:04:36.837Z,67.95
2023-04-29T09:07:05.568Z,68.08
2023-04-29T09:09:33.658Z,67.67
2023-04-29T09:12:00.959Z,67.55
2023-04-29T09:14:30.320Z,67.79
2023-04-29T09:16:57.826Z,68.10
2023-04-29T09:19:30.412Z,67.99
2023-04-29T09:21:59.765Z,68.27
2023-04-29T09:24:27.753Z,67.89
2023-04-29T09:26:55.549Z,68.42
2023-04-29T09:29:22.967Z,69.31
2023-04-29T09:31:51.124Z,69.36
2023-04-29T09:34:18.673Z,68.41
2023-04-29T09:36:47.587Z,67.22
2023-04-29T09:39:17.517Z,66.66
2023-04-29T09:42:00.983Z,66.68
2023-04-29T09:44:33.601Z,67.64
2023-04-29T09:47:03.178Z,66.67
2023-04-29T09:49:32.164Z,66.43
2023-04-29T09:52:01.475Z,65.80
2023-04-29T09:54:31.846Z,66.18
2023-04-29T09:57:01.196Z,66.77
2023-04-29T09:59:28.680Z,65.49
2023-04-29T10:01:58.484Z,66.96
2023-04-29T10:04:27.592Z,67.16
2023-04-29T10:06:56.147Z,68.03
2023-04-29T10:09:24.191Z,67.75
2023-04-29T10:11:53.669Z,67.33
2023-04-29T10:14:22.915Z,67.23
2023-04-29T10:16:54.426Z,67.51
2023-04-29T10:19:28.517Z,68.12
2023-04-29T10:22:00.627Z,68.75
2023-04-29T10:24:28.230Z,68.37
2023-04-29T10:26:57.445Z,67.98
2023-04-29T10:29:27.529Z,67.90
2023-04-29T10:31:57.297Z,67.98
2023-04-29T10:34:26.481Z,67.73
2023-04-29T10:36:53.931Z,67.32
2023-04-29T10:39:30.121Z,67.31
2023-04-29T10:41:58.926Z,66.57
2023-04-29T10:44:26.256Z,66.98
2023-04-29T10:47:21.527Z,66.75
2023-04-29T10:50:05.184Z,66.45
2023-04-29T10:52:51.569Z,66.71
2023-04-29T10:55:19.022Z,66.87
2023-04-29T10:57:47.666Z,67.50
2023-04-29T11:00:22.099Z,68.49
2023-04-29T11:02:49.501Z,67.91
2023-04-29T11:07:45.708Z,67.65
2023-04-29T11:10:13.593Z,67.18
2023-04-29T11:12:41.005Z,66.86
2023-04-29T11:15:10.459Z,67.51
2023-04-29T11:17:38.139Z,67.16
2023-04-29T11:20:13.693Z,66.49
2023-04-29T11:22:42.377Z,66.70
2023-04-29T11:25:10.047Z,67.12
2023-04-29T11:27:38.831Z,67.75
2023-04-29T11:30:07.840Z,67.23
2023-04-29T11:32:38.090Z,66.88
2023-04-29T11:35:10.073Z,67.11
2023-04-29T11:37:37.753Z,68.70
2023-04-29T11:40:06.575Z,69.03
2023-04-29T11:42:34.768Z,69.15
2023-04-29T11:45:02.206Z,69.73
2023-04-29T11:47:31.043Z,69.83
2023-04-29T11:50:07.887Z,69.41
2023-04-29T11:52:36.534Z,70.20
2023-04-29T11:55:04.715Z,70.59
2023-04-29T11:57:32.320Z,70.16
2023-04-29T11:59:59.659Z,70.83
2023-04-29T12:02:29.925Z,70.68
2023-04-29T12:04:57.771Z,70.28
2023-04-29T12:07:27.273Z,70.52
2023-04-29T12:09:55.062Z,71.31
2023-04-29T12:12:22.823Z,70.99
2023-04-29T12:14:50.846Z,70.68
2023-04-29T12:17:18.748Z,70.45
2023-04-29T12:19:46.515Z,70.67
2023-04-29T12:22:13.821Z,70.29
2023-04-29T12:24:42.898Z,71.24
2023-04-29T12:27:10.891Z,70.51
2023-04-29T12:29:39.332Z,71.10
2023-04-29T12:32:06.770Z,71.00
2023-04-29T12:34:34.251Z,70.73
2023-04-29T12:37:02.493Z,70.63
2023-04-29T12:39:31.111Z,70.26
2023-04-29T12:42:00.565Z,70.21
2023-04-29T12:44:35.535Z,70.06
2023-04-29T12:47:08.886Z,70.28
2023-04-29T12:49:36.618Z,70.24
2023-04-29T12:52:04.463Z,70.14
2023-04-29T12:54:31.841Z,69.91
2023-04-29T12:57:00.870Z,69.54
2023-04-29T12:59:28.493Z,68.96
2023-04-29T13:01:55.927Z,68.67
2023-04-29T13:04:23.287Z,69.05
2023-04-29T13:06:50.715Z,68.82
2023-04-29T13:09:19.100Z,69.44
2023-04-29T13:11:46.585Z,69.42
2023-04-29T13:14:15.727Z,69.45
2023-04-29T13:16:43.125Z,69.66
2023-04-29T13:19:28.240Z,68.98
2023-04-29T13:21:57.837Z,68.95
2023-04-29T13:24:25.217Z,69.26
2023-04-29T13:26:52.981Z,69.56
2023-04-29T13:29:21.713Z,69.24
2023-04-29T13:31:49.041Z,69.31
2023-04-29T13:34:16.378Z,69.22
2023-04-29T13:36:43.700Z,69.24
2023-04-29T13:39:11.058Z,68.79
2023-04-29T13:41:42.256Z,69.05
2023-04-29T13:46:44.605Z,70.53
2023-04-29T13:49:38.448Z,71.62
2023-04-29T13:59:41.589Z,72.18
2023-04-29T14:02:24.078Z,71.06
2023-04-29T14:04:53.958Z,70.68
2023-04-29T14:07:21.884Z,71.69
2023-04-29T14:09:49.242Z,71.38
2023-04-29T14:12:16.549Z,70.76
2023-04-29T14:14:43.883Z,71.75
2023-04-29T14:17:11.200Z,72.26
2023-04-29T14:19:39.880Z,72.11
2023-04-29T14:22:07.210Z,72.32
2023-04-29T14:24:34.536Z,72.10
2023-04-29T14:27:01.819Z,71.28
2023-04-29T14:29:29.085Z,71.01
2023-04-29T14:31:56.428Z,71.14
2023-04-29T14:34:23.712Z,70.97
2023-04-29T14:36:52.362Z,71.82
2023-04-29T14:39:19.681Z,72.19
2023-04-29T14:41:46.978Z,72.12
2023-04-29T14:44:14.280Z,72.50
2023-04-29T14:46:41.728Z,72.65
2023-04-29T14:49:09.129Z,71.71
2023-04-29T14:51:36.465Z,71.39
2023-04-29T14:54:05.166Z,71.91
2023-04-29T14:56:32.453Z,71.90
2023-04-29T14:58:59.726Z,72.16
2023-04-29T15:01:27.209Z,71.98
2023-04-29T15:03:55.260Z,71.75
2023-04-29T15:06:22.763Z,72.12
2023-04-29T15:08:50.128Z,71.98
2023-04-29T15:11:18.770Z,71.81
2023-04-29T15:13:46.129Z,71.53
2023-04-29T15:16:13.509Z,71.38
2023-04-29T15:18:41.638Z,71.32
2023-04-29T15:21:10.689Z,71.10
2023-04-29T15:23:38.014Z,71.27
2023-04-29T15:26:05.349Z,71.75
2023-04-29T15:28:34.069Z,71.59
2023-04-29T15:31:01.371Z,72.78
2023-04-29T15:33:28.855Z,72.76
2023-04-29T15:35:56.447Z,73.23
2023-04-29T15:38:24.025Z,73.04
2023-04-29T15:40:51.369Z,72.90
2023-04-29T15:43:18.698Z,72.58
2023-04-29T15:45:47.472Z,72.11
2023-04-29T15:48:14.786Z,72.44
2023-04-29T15:50:42.121Z,72.16
2023-04-29T15:53:09.536Z,72.71
2023-04-29T15:55:36.878Z,72.27
2023-04-29T15:58:04.317Z,72.60
2023-04-29T16:00:31.586Z,72.65
2023-04-29T16:03:00.359Z,72.37
2023-04-29T16:05:27.770Z,73.53
2023-04-29T16:07:55.077Z,74.21
2023-04-29T16:10:22.511Z,74.02
2023-04-29T16:12:49.827Z,73.52
2023-04-29T16:15:17.279Z,73.58
2023-04-29T16:17:44.784Z,73.21
2023-04-29T16:20:13.664Z,73.86
2023-04-29T16:22:41.021Z,73.50
2023-04-29T16:25:09.292Z,73.37
2023-04-29T16:27:36.649Z,73.50
2023-04-29T16:30:04.565Z,74.07
2023-04-29T16:32:32.123Z,73.70
2023-04-29T16:35:01.400Z,74.08
2023-04-29T16:37:30.541Z,74.02
2023-04-29T16:39:57.938Z,74.15
2023-04-29T16:42:25.349Z,74.41
2023-04-29T16:44:52.613Z,74.71
2023-04-29T16:47:20.060Z,74.34
2023-04-29T16:49:47.682Z,74.61
2023-04-29T16:52:15.028Z,74.02
2023-04-29T16:54:43.678Z,73.36
2023-04-29T16:57:11.163Z,73.17
2023-04-29T16:59:38.467Z,73.65
2023-04-29T17:02:05.898Z,72.98
2023-04-29T17:04:33.478Z,73.17
2023-04-29T17:07:00.861Z,73.75
2023-04-29T17:09:28.157Z,74.11
2023-04-29T17:11:56.886Z,74.36
2023-04-29T17:14:24.317Z,73.50
2023-04-29T17:16:51.656Z,73.91
2023-04-29T17:19:19.448Z,73.41
2023-04-29T17:21:46.837Z,73.29
2023-04-29T17:24:14.212Z,73.34
2023-04-29T17:26:41.613Z,72.95
2023-04-29T17:29:10.336Z,73.51
2023-04-29T17:31:37.685Z,73.76
2023-04-29T17:34:05.055Z,73.86
2023-04-29T17:36:32.438Z,74.47
2023-04-29T17:38:59.730Z,74.01
2023-04-29T17:41:27.007Z,74.11
2023-04-29T17:43:54.349Z,73.96
2023-04-29T17:46:23.076Z,74.19
2023-04-29T17:48:50.387Z,75.29
2023-04-29T17:51:17.737Z,75.50
2023-04-29T17:53:45.108Z,74.67
2023-04-29T17:56:12.504Z,74.89
2023-04-29T17:58:39.778Z,74.29
2023-04-29T18:01:07.158Z,74.26
2023-04-29T18:03:35.907Z,73.69
2023-04-29T18:06:03.547Z,73.78
2023-04-29T18:08:33.512Z,73.94
2023-04-29T18:11:00.912Z,73.68
2023-04-29T18:13:28.233Z,73.91
2023-04-29T18:15:55.636Z,74.11
2023-04-29T18:18:22.927Z,74.20
2023-04-29T18:20:51.603Z,74.44
2023-04-29T18:23:18.925Z,75.67
2023-04-29T18:25:46.500Z,74.75
2023-04-29T18:28:24.882Z,75.25
2023-04-29T18:30:53.028Z,74.69
2023-04-29T18:33:20.441Z,74.70
2023-04-29T18:35:47.897Z,74.79
2023-04-29T18:38:16.632Z,74.69
2023-04-29T18:40:44.291Z,74.40
2023-04-29T18:43:11.610Z,75.19
2023-04-29T18:45:38.916Z,74.26
2023-04-29T18:48:06.412Z,74.40
2023-04-29T18:50:34.097Z,74.33
2023-04-29T18:53:01.522Z,74.13
2023-04-29T18:55:30.190Z,74.09
2023-04-29T18:57:57.542Z,74.16
2023-04-29T19:00:24.877Z,73.59
2023-04-29T19:02:52.265Z,73.65
2023-04-29T19:05:19.706Z,73.23
2023-04-29T19:07:47.036Z,74.13
2023-04-29T19:10:14.421Z,73.97
2023-04-29T19:12:43.111Z,73.77
2023-04-29T19:15:10.969Z,74.22
2023-04-29T19:17:38.294Z,74.41
2023-04-29T19:20:06.963Z,74.35
2023-04-29T19:22:34.396Z,74.51
2023-04-29T19:25:02.112Z,75.43
2023-04-29T19:27:29.611Z,75.08
2023-04-29T19:29:58.280Z,74.33
2023-04-29T19:32:27.611Z,74.86
2023-04-29T19:34:56.169Z,74.67
2023-04-29T19:37:23.540Z,74.28
2023-04-29T19:39:50.967Z,74.52
2023-04-29T19:42:18.307Z,74.82
2023-04-29T19:44:45.672Z,74.82
2023-04-29T19:47:14.574Z,74.19
2023-04-29T19:49:41.845Z,74.78
2023-04-29T19:52:09.167Z,74.96
2023-04-29T19:54:36.500Z,74.98
2023-04-29T19:57:04.035Z,74.82
2023-04-29T19:59:31.338Z,75.29
2023-04-29T20:01:58.782Z,74.56
2023-04-29T20:04:27.653Z,74.40
2023-04-29T20:06:54.929Z,74.04
2023-04-29T20:09:22.214Z,74.00
2023-04-29T20:11:49.489Z,73.38
2023-04-29T20:14:17.078Z,74.12
2023-04-29T20:16:44.469Z,73.39
2023-04-29T20:19:11.833Z,73.34
2023-04-29T20:21:40.594Z,73.75
2023-04-29T20:24:07.851Z,73.17
2023-04-29T20:26:35.196Z,72.32
2023-04-29T20:29:02.502Z,74.58
2023-04-29T20:31:29.981Z,74.08
2023-04-29T20:33:57.323Z,74.48
2023-04-29T20:36:24.603Z,74.20
2023-04-29T20:38:53.337Z,74.65
2023-04-29T20:41:20.662Z,74.71
2023-04-29T20:43:48.084Z,74.80
2023-04-29T20:46:15.464Z,74.28
2023-04-29T20:48:42.830Z,74.20
2023-04-29T20:51:10.255Z,74.19
2023-04-29T20:53:37.746Z,73.98
2023-04-29T20:56:07.237Z,73.48
2023-04-29T20:58:34.556Z,72.73
2023-04-29T21:01:01.929Z,72.92
2023-04-29T21:03:29.229Z,72.38
2023-04-29T21:05:56.913Z,72.70
2023-04-29T21:08:24.297Z,72.95
2023-04-29T21:10:51.583Z,73.43
2023-04-29T21:13:20.268Z,72.82
2023-04-29T21:15:56.576Z,74.01
2023-04-29T21:18:26.223Z,73.78
2023-04-29T21:20:53.624Z,73.11
2023-04-29T21:23:20.987Z,73.62
2023-04-29T21:25:48.527Z,73.62
2023-04-29T21:28:16.920Z,73.66
2023-04-29T21:30:45.787Z,73.36
2023-04-29T21:33:13.071Z,73.30
2023-04-29T21:35:40.649Z,73.43
2023-04-29T21:38:08.051Z,72.86
2023-04-29T21:40:39.664Z,73.04
2023-04-29T21:43:07.014Z,72.57
2023-04-29T21:45:34.467Z,73.10
2023-04-29T21:48:13.370Z,72.91
2023-04-29T21:50:41.069Z,73.28
2023-04-29T21:53:08.428Z,72.49
2023-04-29T21:55:35.910Z,72.01
2023-04-29T21:58:03.451Z,71.21
2023-04-29T22:00:30.984Z,71.31
2023-04-29T22:02:59.356Z,71.37
2023-04-29T22:05:28.036Z,71.68
2023-04-29T22:07:57.504Z,72.41
2023-04-29T22:10:25.256Z,72.38
2023-04-29T22:12:52.850Z,72.54
2023-04-29T22:15:28.084Z,72.00
2023-04-29T22:17:56.416Z,72.54
2023-04-29T22:20:23.868Z,72.21
2023-04-29T22:22:52.579Z,71.97
2023-04-29T22:25:19.968Z,72.94
2023-04-29T22:27:47.474Z,73.49
2023-04-29T22:30:14.843Z,72.93
2023-04-29T22:32:42.138Z,72.54
2023-04-29T22:35:09.773Z,72.25
2023-04-29T22:37:37.113Z,72.47
2023-04-29T22:40:07.209Z,72.25
2023-04-29T22:42:34.501Z,72.71
2023-04-29T22:45:01.837Z,72.58
2023-04-29T22:47:29.681Z,72.50
2023-04-29T22:49:57.267Z,72.95
2023-04-29T22:52:24.544Z,73.28
2023-04-29T22:54:51.846Z,72.87
2023-04-29T22:57:20.567Z,72.14
2023-04-29T22:59:47.961Z,71.66
2023-04-29T23:02:15.251Z,72.41
2023-04-29T23:04:42.619Z,72.14
2023-04-29T23:07:10.028Z,72.33
2023-04-29T23:09:37.342Z,72.11
2023-04-29T23:12:04.935Z,72.55
2023-04-29T23:14:33.573Z,72.17
2023-04-29T23:17:00.858Z,71.74
2023-04-29T23:19:28.152Z,72.29
2023-04-29T23:21:55.433Z,72.67
2023-04-29T23:24:22.904Z,72.94
2023-04-29T23:26:50.206Z,73.09
2023-04-29T23:29:17.521Z,73.09
2023-04-29T23:31:46.290Z,73.04
2023-04-29T23:34:13.615Z,72.97
2023-04-29T23:36:40.893Z,72.69
2023-04-29T23:39:08.183Z,72.41
2023-04-29T23:41:35.459Z,72.37
2023-04-29T23:44:02.789Z,73.17
2023-04-29T23:46:30.163Z,73.32
2023-04-29T23:48:58.953Z,73.17
2023-04-29T23:51:26.239Z,72.49
2023-04-29T23:53:53.524Z,72.59
2023-04-29T23:56:20.917Z,71.99
2023-04-29T23:58:48.301Z,72.25
